sensor_id;sensor_type;location;lat;lon;timestamp;pressure;altitude;pressure_sealevel;temperature;humidity
35676;BME280;21790;42.668;23.298;2022-11-20T00:01:18;93893.59;;;21.65;40.73
35676;BME280;21790;42.668;23.298;2022-11-20T00:03:45;93921.44;;;21.27;41.47
35676;BME280;21790;42.668;23.298;2022-11-20T00:06:14;93966.94;;;21.25;41.32
35676;BME280;21790;42.668;23.298;2022-11-20T00:08:41;93916.19;;;21.52;41.07
35676;BME280;21790;42.668;23.298;2022-11-20T00:11:12;93919.50;;;21.43;40.69
35676;BME280;21790;42.668;23.298;2022-11-20T00:13:39;93949.97;;;21.59;40.70
35676;BME280;21790;42.668;23.298;2022-11-20T00:16:06;93923.81;;;22.00;40.18
35676;BME280;21790;42.668;23.298;2022-11-20T00:18:33;93938.84;;;21.82;40.29
35676;BME280;21790;42.668;23.298;2022-11-20T00:21:14;93924.25;;;21.55;40.90
35676;BME280;21790;42.668;23.298;2022-11-20T00:23:41;93895.00;;;21.51;41.08
35676;BME280;21790;42.668;23.298;2022-11-20T00:26:09;93902.06;;;21.73;40.93
35676;BME280;21790;42.668;23.298;2022-11-20T00:28:35;93925.91;;;21.51;40.87
35676;BME280;21790;42.668;23.298;2022-11-20T00:33:31;93933.56;;;21.71;40.32
35676;BME280;21790;42.668;23.298;2022-11-20T00:36:06;93906.16;;;21.64;40.54
35676;BME280;21790;42.668;23.298;2022-11-20T00:38:33;93920.00;;;21.62;40.15
35676;BME280;21790;42.668;23.298;2022-11-20T00:41:00;93922.88;;;22.05;39.75
35676;BME280;21790;42.668;23.298;2022-11-20T00:43:26;93892.78;;;22.29;39.36
35676;BME280;21790;42.668;23.298;2022-11-20T00:45:59;93914.50;;;21.85;39.67
35676;BME280;21790;42.668;23.298;2022-11-20T00:48:26;93945.19;;;21.75;40.28
35676;BME280;21790;42.668;23.298;2022-11-20T00:50:52;93916.28;;;21.67;39.93
35676;BME280;21790;42.668;23.298;2022-11-20T00:53:18;93933.88;;;21.60;40.70
35676;BME280;21790;42.668;23.298;2022-11-20T00:56:02;93911.94;;;21.66;40.65
35676;BME280;21790;42.668;23.298;2022-11-20T00:58:33;93956.34;;;21.60;40.70
35676;BME280;21790;42.668;23.298;2022-11-20T01:01:07;93936.56;;;21.73;40.28
35676;BME280;21790;42.668;23.298;2022-11-20T01:03:34;93925.03;;;22.20;39.80
35676;BME280;21790;42.668;23.298;2022-11-20T01:06:02;93965.44;;;22.02;40.18
35676;BME280;21790;42.668;23.298;2022-11-20T01:08:32;93922.78;;;21.90;40.11
35676;BME280;21790;42.668;23.298;2022-11-20T01:11:02;93931.63;;;21.94;40.05
35676;BME280;21790;42.668;23.298;2022-11-20T01:13:29;93906.53;;;21.96;40.19
35676;BME280;21790;42.668;23.298;2022-11-20T01:16:12;93912.16;;;21.68;40.43
35676;BME280;21790;42.668;23.298;2022-11-20T01:18:40;93882.81;;;22.28;39.16
35676;BME280;21790;42.668;23.298;2022-11-20T01:21:09;93894.56;;;22.62;38.79
35676;BME280;21790;42.668;23.298;2022-11-20T01:23:36;93893.66;;;22.16;39.44
35676;BME280;21790;42.668;23.298;2022-11-20T01:26:04;93901.00;;;22.27;39.58
35676;BME280;21790;42.668;23.298;2022-11-20T01:28:30;93897.25;;;21.88;39.45
35676;BME280;21790;42.668;23.298;2022-11-20T01:30:57;93904.66;;;21.99;39.90
35676;BME280;21790;42.668;23.298;2022-11-20T01:33:23;93908.34;;;21.86;40.04
35676;BME280;21790;42.668;23.298;2022-11-20T01:35:48;93907.63;;;22.37;39.49
35676;BME280;21790;42.668;23.298;2022-11-20T01:38:15;93851.53;;;22.54;38.88
35676;BME280;21790;42.668;23.298;2022-11-20T01:40:40;93876.66;;;22.37;39.07
35676;BME280;21790;42.668;23.298;2022-11-20T01:43:14;93916.63;;;22.35;39.16
35676;BME280;21790;42.668;23.298;2022-11-20T01:51:55;93881.00;;;22.45;38.74
35676;BME280;21790;42.668;23.298;2022-11-20T01:54:30;93848.03;;;22.76;37.74
35676;BME280;21790;42.668;23.298;2022-11-20T01:57:00;93880.59;;;22.34;38.66
35676;BME280;21790;42.668;23.298;2022-11-20T01:59:28;93886.59;;;22.30;39.04
35676;BME280;21790;42.668;23.298;2022-11-20T02:01:54;93883.44;;;22.41;38.88
35676;BME280;21790;42.668;23.298;2022-11-20T02:04:21;93930.66;;;22.28;39.16
35676;BME280;21790;42.668;23.298;2022-11-20T02:06:53;93858.50;;;22.61;38.47
35676;BME280;21790;42.668;23.298;2022-11-20T02:09:20;93895.81;;;22.38;39.06
35676;BME280;21790;42.668;23.298;2022-11-20T02:11:46;93910.03;;;22.33;38.58
35676;BME280;21790;42.668;23.298;2022-11-20T02:14:11;93909.28;;;22.32;38.56
35676;BME280;21790;42.668;23.298;2022-11-20T02:16:40;93881.84;;;22.76;37.91
35676;BME280;21790;42.668;23.298;2022-11-20T02:22:00;93916.22;;;22.24;39.30
35676;BME280;21790;42.668;23.298;2022-11-20T02:24:27;93894.47;;;22.24;38.96
35676;BME280;21790;42.668;23.298;2022-11-20T02:27:04;93892.28;;;22.61;38.29
35676;BME280;21790;42.668;23.298;2022-11-20T02:29:59;93899.84;;;22.81;38.03
35676;BME280;21790;42.668;23.298;2022-11-20T02:32:31;93911.34;;;22.32;38.47
35676;BME280;21790;42.668;23.298;2022-11-20T02:34:58;93887.09;;;22.14;39.22
35676;BME280;21790;42.668;23.298;2022-11-20T02:37:33;93907.28;;;21.97;39.47
35676;BME280;21790;42.668;23.298;2022-11-20T02:39:59;93917.69;;;22.17;39.41
35676;BME280;21790;42.668;23.298;2022-11-20T02:42:25;93907.78;;;22.31;38.68
35676;BME280;21790;42.668;23.298;2022-11-20T02:44:50;93914.03;;;21.65;40.30
35676;BME280;21790;42.668;23.298;2022-11-20T02:47:16;93927.41;;;21.80;40.31
35676;BME280;21790;42.668;23.298;2022-11-20T02:49:42;93928.19;;;22.17;39.79
35676;BME280;21790;42.668;23.298;2022-11-20T02:52:08;93930.59;;;22.56;39.08
35676;BME280;21790;42.668;23.298;2022-11-20T02:54:34;93931.59;;;21.58;41.12
35676;BME280;21790;42.668;23.298;2022-11-20T02:56:59;93934.84;;;21.98;40.19
35676;BME280;21790;42.668;23.298;2022-11-20T02:59:25;93929.16;;;21.91;40.61
35676;BME280;21790;42.668;23.298;2022-11-20T03:01:50;93911.34;;;22.24;40.12
35676;BME280;21790;42.668;23.298;2022-11-20T03:04:16;93926.97;;;21.97;40.95
35676;BME280;21790;42.668;23.298;2022-11-20T03:06:41;93945.66;;;22.23;40.45
35676;BME280;21790;42.668;23.298;2022-11-20T03:09:07;93939.97;;;21.79;41.16
35676;BME280;21790;42.668;23.298;2022-11-20T03:11:32;93972.50;;;21.67;41.54
35676;BME280;21790;42.668;23.298;2022-11-20T03:14:02;93938.47;;;22.06;41.13
35676;BME280;21790;42.668;23.298;2022-11-20T03:16:27;93938.81;;;21.46;42.00
35676;BME280;21790;42.668;23.298;2022-11-20T03:18:53;93917.59;;;21.38;42.19
35676;BME280;21790;42.668;23.298;2022-11-20T03:21:18;93938.28;;;21.76;41.96
35676;BME280;21790;42.668;23.298;2022-11-20T03:23:44;93952.47;;;21.99;41.29
35676;BME280;21790;42.668;23.298;2022-11-20T03:26:19;93928.50;;;21.77;41.68
35676;BME280;21790;42.668;23.298;2022-11-20T03:28:50;93930.78;;;21.50;41.99
35676;BME280;21790;42.668;23.298;2022-11-20T03:31:19;93956.63;;;21.77;41.54
35676;BME280;21790;42.668;23.298;2022-11-20T03:33:44;93960.91;;;21.42;41.85
35676;BME280;21790;42.668;23.298;2022-11-20T03:36:12;93945.81;;;21.53;42.11
35676;BME280;21790;42.668;23.298;2022-11-20T03:38:38;93922.13;;;21.77;41.46
35676;BME280;21790;42.668;23.298;2022-11-20T03:41:06;93936.56;;;21.45;42.10
35676;BME280;21790;42.668;23.298;2022-11-20T03:43:33;93955.94;;;21.56;41.52
35676;BME280;21790;42.668;23.298;2022-11-20T03:45:59;93973.50;;;21.07;42.64
35676;BME280;21790;42.668;23.298;2022-11-20T03:48:25;93983.19;;;21.19;42.48
35676;BME280;21790;42.668;23.298;2022-11-20T03:50:51;93984.16;;;21.43;42.26
35676;BME280;21790;42.668;23.298;2022-11-20T03:53:17;93957.69;;;21.17;42.24
35676;BME280;21790;42.668;23.298;2022-11-20T03:55:42;93992.13;;;20.97;42.81
35676;BME280;21790;42.668;23.298;2022-11-20T03:58:09;93962.56;;;21.17;42.58
35676;BME280;21790;42.668;23.298;2022-11-20T04:00:35;93959.53;;;21.36;41.94
35676;BME280;21790;42.668;23.298;2022-11-20T04:03:02;93956.84;;;21.09;42.62
35676;BME280;21790;42.668;23.298;2022-11-20T04:05:27;93975.91;;;21.45;42.09
35676;BME280;21790;42.668;23.298;2022-11-20T04:07:53;93981.84;;;21.90;41.13
35676;BME280;21790;42.668;23.298;2022-11-20T04:10:18;93980.66;;;21.78;40.86
35676;BME280;21790;42.668;23.298;2022-11-20T04:12:44;93956.22;;;21.45;41.45
35676;BME280;21790;42.668;23.298;2022-11-20T04:15:10;93978.38;;;21.97;40.74
35676;BME280;21790;42.668;23.298;2022-11-20T04:17:35;93975.75;;;22.35;39.95
35676;BME280;21790;42.668;23.298;2022-11-20T04:20:01;93983.16;;;21.89;40.51
35676;BME280;21790;42.668;23.298;2022-11-20T04:22:27;93994.09;;;21.44;41.69
35676;BME280;21790;42.668;23.298;2022-11-20T04:24:52;93968.91;;;21.87;40.77
35676;BME280;21790;42.668;23.298;2022-11-20T04:27:18;93978.56;;;21.71;41.43
35676;BME280;21790;42.668;23.298;2022-11-20T04:29:43;93980.78;;;21.73;41.25
35676;BME280;21790;42.668;23.298;2022-11-20T04:32:09;94013.63;;;21.98;40.80
35676;BME280;21790;42.668;23.298;2022-11-20T04:34:34;93982.81;;;21.02;43.09
35676;BME280;21790;42.668;23.298;2022-11-20T04:37:00;93985.72;;;21.31;42.39
35676;BME280;21790;42.668;23.298;2022-11-20T04:39:26;93997.09;;;21.46;42.45
35676;BME280;21790;42.668;23.298;2022-11-20T04:41:51;93982.25;;;21.66;41.80
35676;BME280;21790;42.668;23.298;2022-11-20T04:44:37;93989.06;;;21.08;43.04
35676;BME280;21790;42.668;23.298;2022-11-20T04:47:02;93971.91;;;21.33;42.70
35676;BME280;21790;42.668;23.298;2022-11-20T04:49:28;93956.91;;;20.96;43.23
35676;BME280;21790;42.668;23.298;2022-11-20T04:51:53;93966.19;;;21.04;43.22
35676;BME280;21790;42.668;23.298;2022-11-20T04:54:19;93968.50;;;20.93;43.27
35676;BME280;21790;42.668;23.298;2022-11-20T04:56:47;93956.97;;;21.45;42.71
35676;BME280;21790;42.668;23.298;2022-11-20T04:59:13;93969.63;;;21.10;43.23
35676;BME280;21790;42.668;23.298;2022-11-20T05:01:38;93943.47;;;20.61;43.81
35676;BME280;21790;42.668;23.298;2022-11-20T05:04:04;93949.59;;;21.35;42.45
35676;BME280;21790;42.668;23.298;2022-11-20T05:06:31;93948.91;;;21.00;42.82
35676;BME280;21790;42.668;23.298;2022-11-20T05:08:57;93936.63;;;20.90;43.07
35676;BME280;21790;42.668;23.298;2022-11-20T05:11:22;93933.69;;;20.96;43.24
35676;BME280;21790;42.668;23.298;2022-11-20T05:13:49;93934.94;;;20.66;43.79
35676;BME280;21790;42.668;23.298;2022-11-20T05:16:20;93915.06;;;20.85;43.61
35676;BME280;21790;42.668;23.298;2022-11-20T05:18:46;93920.25;;;21.02;42.94
35676;BME280;21790;42.668;23.298;2022-11-20T05:21:12;93924.31;;;20.93;42.91
35676;BME280;21790;42.668;23.298;2022-11-20T05:23:38;93908.63;;;21.18;42.47
35676;BME280;21790;42.668;23.298;2022-11-20T05:26:05;93898.44;;;20.87;43.57
35676;BME280;21790;42.668;23.298;2022-11-20T05:28:31;93899.66;;;20.99;42.52
35676;BME280;21790;42.668;23.298;2022-11-20T05:31:08;93883.34;;;21.18;42.59
35676;BME280;21790;42.668;23.298;2022-11-20T05:33:35;93912.38;;;21.42;41.83
35676;BME280;21790;42.668;23.298;2022-11-20T05:36:02;93926.97;;;21.40;42.06
35676;BME280;21790;42.668;23.298;2022-11-20T05:38:28;93923.56;;;21.34;42.41
35676;BME280;21790;42.668;23.298;2022-11-20T05:40:53;93952.91;;;21.25;42.59
35676;BME280;21790;42.668;23.298;2022-11-20T05:43:19;93937.97;;;21.59;41.85
35676;BME280;21790;42.668;23.298;2022-11-20T05:45:52;93935.41;;;21.40;42.52
35676;BME280;21790;42.668;23.298;2022-11-20T05:48:18;93942.75;;;21.22;42.80
35676;BME280;21790;42.668;23.298;2022-11-20T05:50:43;93957.16;;;21.68;41.78
35676;BME280;21790;42.668;23.298;2022-11-20T05:53:08;93937.25;;;21.66;41.17
35676;BME280;21790;42.668;23.298;2022-11-20T05:55:34;93937.88;;;22.00;40.57
35676;BME280;21790;42.668;23.298;2022-11-20T05:57:59;93954.94;;;21.46;40.98
35676;BME280;21790;42.668;23.298;2022-11-20T06:00:25;93954.34;;;21.68;40.60
35676;BME280;21790;42.668;23.298;2022-11-20T06:02:50;93972.94;;;21.99;40.35
35676;BME280;21790;42.668;23.298;2022-11-20T06:05:16;93973.88;;;21.74;40.85
35676;BME280;21790;42.668;23.298;2022-11-20T06:07:41;93962.78;;;21.68;41.04
35676;BME280;21790;42.668;23.298;2022-11-20T06:10:07;93972.22;;;22.06;40.47
35676;BME280;21790;42.668;23.298;2022-11-20T06:12:32;93971.50;;;21.57;41.01
35676;BME280;21790;42.668;23.298;2022-11-20T06:14:58;93972.34;;;21.44;41.52
35676;BME280;21790;42.668;23.298;2022-11-20T06:17:24;93972.56;;;21.46;41.64
35676;BME280;21790;42.668;23.298;2022-11-20T06:19:49;93958.16;;;22.06;41.03
35676;BME280;21790;42.668;23.298;2022-11-20T06:22:15;93970.91;;;21.51;42.87
35676;BME280;21790;42.668;23.298;2022-11-20T06:24:40;93966.44;;;21.84;42.56
35676;BME280;21790;42.668;23.298;2022-11-20T06:27:06;93993.50;;;21.66;43.69
35676;BME280;21790;42.668;23.298;2022-11-20T06:29:31;94001.00;;;21.92;42.90
35676;BME280;21790;42.668;23.298;2022-11-20T06:31:57;93994.13;;;22.00;42.19
35676;BME280;21790;42.668;23.298;2022-11-20T06:34:22;93981.84;;;22.19;41.49
35676;BME280;21790;42.668;23.298;2022-11-20T06:36:48;93981.03;;;22.03;41.76
35676;BME280;21790;42.668;23.298;2022-11-20T06:39:13;93974.28;;;22.06;41.66
35676;BME280;21790;42.668;23.298;2022-11-20T06:41:39;93991.84;;;22.27;41.85
35676;BME280;21790;42.668;23.298;2022-11-20T06:44:05;93997.34;;;22.04;41.03
35676;BME280;21790;42.668;23.298;2022-11-20T06:46:30;93991.34;;;21.31;41.29
35676;BME280;21790;42.668;23.298;2022-11-20T06:48:56;93996.88;;;21.93;40.63
35676;BME280;21790;42.668;23.298;2022-11-20T06:51:23;93986.72;;;21.90;39.99
35676;BME280;21790;42.668;23.298;2022-11-20T06:53:48;93999.03;;;22.36;39.40
35676;BME280;21790;42.668;23.298;2022-11-20T06:56:14;93987.78;;;22.94;39.03
35676;BME280;21790;42.668;23.298;2022-11-20T06:58:39;93999.31;;;23.27;38.13
35676;BME280;21790;42.668;23.298;2022-11-20T07:01:08;93984.81;;;23.00;37.73
35676;BME280;21790;42.668;23.298;2022-11-20T07:03:34;93992.69;;;23.09;37.59
35676;BME280;21790;42.668;23.298;2022-11-20T07:06:00;94011.09;;;22.95;38.07
35676;BME280;21790;42.668;23.298;2022-11-20T07:08:26;93983.28;;;22.99;38.37
35676;BME280;21790;42.668;23.298;2022-11-20T07:10:52;93994.88;;;22.73;38.60
35676;BME280;21790;42.668;23.298;2022-11-20T07:13:17;93990.25;;;23.06;38.38
35676;BME280;21790;42.668;23.298;2022-11-20T07:15:42;94003.22;;;23.24;38.28
35676;BME280;21790;42.668;23.298;2022-11-20T07:18:08;94011.72;;;22.65;39.33
35676;BME280;21790;42.668;23.298;2022-11-20T07:20:34;94021.06;;;23.04;38.95
35676;BME280;21790;42.668;23.298;2022-11-20T07:22:59;93998.34;;;23.02;38.64
35676;BME280;21790;42.668;23.298;2022-11-20T07:25:26;94004.16;;;22.17;39.81
35676;BME280;21790;42.668;23.298;2022-11-20T07:27:52;94000.72;;;22.39;39.82
35676;BME280;21790;42.668;23.298;2022-11-20T07:30:18;94006.53;;;22.05;39.68
35676;BME280;21790;42.668;23.298;2022-11-20T07:32:47;94007.59;;;21.94;40.05
35676;BME280;21790;42.668;23.298;2022-11-20T07:35:15;94032.69;;;21.92;40.17
35676;BME280;21790;42.668;23.298;2022-11-20T07:37:41;94014.03;;;22.02;40.21
35676;BME280;21790;42.668;23.298;2022-11-20T07:40:06;93993.28;;;22.13;39.91
35676;BME280;21790;42.668;23.298;2022-11-20T07:42:32;94001.50;;;22.47;39.05
35676;BME280;21790;42.668;23.298;2022-11-20T07:44:57;93986.09;;;21.76;39.19
35676;BME280;21790;42.668;23.298;2022-11-20T07:47:23;93995.28;;;22.05;39.31
35676;BME280;21790;42.668;23.298;2022-11-20T07:49:48;94024.97;;;22.14;39.29
35676;BME280;21790;42.668;23.298;2022-11-20T07:52:13;93995.69;;;22.45;39.18
35676;BME280;21790;42.668;23.298;2022-11-20T07:54:39;94012.84;;;22.70;39.43
35676;BME280;21790;42.668;23.298;2022-11-20T07:57:04;94011.72;;;22.65;39.38
35676;BME280;21790;42.668;23.298;2022-11-20T07:59:30;94021.66;;;22.66;39.53
35676;BME280;21790;42.668;23.298;2022-11-20T08:01:55;94028.66;;;22.73;39.89
35676;BME280;21790;42.668;23.298;2022-11-20T08:04:20;94033.84;;;22.61;40.15
35676;BME280;21790;42.668;23.298;2022-11-20T08:06:46;94035.47;;;22.49;40.71
35676;BME280;21790;42.668;23.298;2022-11-20T08:09:12;94020.47;;;22.54;40.25
35676;BME280;21790;42.668;23.298;2022-11-20T08:11:38;94015.81;;;22.64;40.23
35676;BME280;21790;42.668;23.298;2022-11-20T08:14:21;94008.66;;;22.56;40.52
35676;BME280;21790;42.668;23.298;2022-11-20T08:16:48;93993.28;;;22.64;40.17
35676;BME280;21790;42.668;23.298;2022-11-20T08:19:16;94018.97;;;22.97;39.46
35676;BME280;21790;42.668;23.298;2022-11-20T08:21:42;94017.88;;;23.15;39.12
35676;BME280;21790;42.668;23.298;2022-11-20T08:24:09;94010.94;;;23.16;39.48
35676;BME280;21790;42.668;23.298;2022-11-20T08:26:36;94029.38;;;23.17;39.49
35676;BME280;21790;42.668;23.298;2022-11-20T08:29:03;94044.75;;;23.08;39.57
35676;BME280;21790;42.668;23.298;2022-11-20T08:31:29;94051.25;;;22.16;41.17
35676;BME280;21790;42.668;23.298;2022-11-20T08:33:55;94075.97;;;22.10;41.38
35676;BME280;21790;42.668;23.298;2022-11-20T08:36:22;94046.25;;;22.58;40.24
35676;BME280;21790;42.668;23.298;2022-11-20T08:38:51;94039.09;;;22.57;40.83
35676;BME280;21790;42.668;23.298;2022-11-20T08:41:17;94046.53;;;22.11;40.98
35676;BME280;21790;42.668;23.298;2022-11-20T08:43:49;94053.97;;;22.29;41.02
35676;BME280;21790;42.668;23.298;2022-11-20T08:46:15;94071.09;;;22.10;42.84
35676;BME280;21790;42.668;23.298;2022-11-20T08:48:41;94093.22;;;21.65;46.85
35676;BME280;21790;42.668;23.298;2022-11-20T08:51:07;94075.03;;;21.45;47.13
35676;BME280;21790;42.668;23.298;2022-11-20T08:53:33;94083.47;;;21.24;47.36
35676;BME280;21790;42.668;23.298;2022-11-20T08:55:59;94052.25;;;20.34;49.26
35676;BME280;21790;42.668;23.298;2022-11-20T08:58:25;94063.72;;;20.70;49.64
35676;BME280;21790;42.668;23.298;2022-11-20T09:00:51;94053.97;;;20.84;49.75
35676;BME280;21790;42.668;23.298;2022-11-20T09:03:16;94064.06;;;20.66;49.10
35676;BME280;21790;42.668;23.298;2022-11-20T09:05:42;94063.69;;;20.83;48.46
35676;BME280;21790;42.668;23.298;2022-11-20T09:08:08;94078.25;;;21.28;48.76
35676;BME280;21790;42.668;23.298;2022-11-20T09:10:34;94079.91;;;21.45;48.26
35676;BME280;21790;42.668;23.298;2022-11-20T09:13:00;94067.72;;;21.08;48.78
35676;BME280;21790;42.668;23.298;2022-11-20T09:15:27;94074.81;;;21.22;47.97
35676;BME280;21790;42.668;23.298;2022-11-20T09:18:00;94089.81;;;20.91;50.78
35676;BME280;21790;42.668;23.298;2022-11-20T09:20:27;94081.19;;;21.23;50.30
35676;BME280;21790;42.668;23.298;2022-11-20T09:22:57;94090.72;;;21.07;50.01
35676;BME280;21790;42.668;23.298;2022-11-20T09:25:22;94074.22;;;21.03;50.99
35676;BME280;21790;42.668;23.298;2022-11-20T09:27:48;94074.97;;;20.57;50.11
35676;BME280;21790;42.668;23.298;2022-11-20T09:30:14;94059.66;;;20.18;49.49
35676;BME280;21790;42.668;23.298;2022-11-20T09:32:40;94071.09;;;19.94;50.83
35676;BME280;21790;42.668;23.298;2022-11-20T09:35:06;94059.00;;;20.52;50.39
35676;BME280;21790;42.668;23.298;2022-11-20T09:37:32;94030.94;;;19.86;50.22
35676;BME280;21790;42.668;23.298;2022-11-20T09:39:57;94032.03;;;20.22;51.56
35676;BME280;21790;42.668;23.298;2022-11-20T09:42:54;94019.00;;;20.38;51.50
35676;BME280;21790;42.668;23.298;2022-11-20T09:45:28;94015.53;;;20.79;51.13
35676;BME280;21790;42.668;23.298;2022-11-20T09:51:04;94010.63;;;21.13;49.41
35676;BME280;21790;42.668;23.298;2022-11-20T09:54:04;94007.66;;;21.53;48.28
35676;BME280;21790;42.668;23.298;2022-11-20T09:56:34;94016.88;;;21.61;49.41
35676;BME280;21790;42.668;23.298;2022-11-20T09:59:04;94020.69;;;21.92;48.70
35676;BME280;21790;42.668;23.298;2022-11-20T10:01:34;94022.34;;;22.16;47.59
35676;BME280;21790;42.668;23.298;2022-11-20T10:04:16;94021.47;;;22.64;47.56
35676;BME280;21790;42.668;23.298;2022-11-20T10:09:36;94021.94;;;22.83;47.10
35676;BME280;21790;42.668;23.298;2022-11-20T10:15:35;94018.13;;;23.40;47.64
35676;BME280;21790;42.668;23.298;2022-11-20T10:18:15;94016.84;;;23.48;47.45
35676;BME280;21790;42.668;23.298;2022-11-20T10:24:05;94009.31;;;23.58;46.53
35676;BME280;21790;42.668;23.298;2022-11-20T10:29:34;94026.56;;;23.32;47.95
35676;BME280;21790;42.668;23.298;2022-11-20T10:32:14;93988.97;;;23.22;46.92
35676;BME280;21790;42.668;23.298;2022-11-20T10:35:14;93994.44;;;23.43;47.24
35676;BME280;21790;42.668;23.298;2022-11-20T10:37:41;94017.59;;;23.49;46.46
35676;BME280;21790;42.668;23.298;2022-11-20T10:40:29;94011.16;;;23.41;46.17
35676;BME280;21790;42.668;23.298;2022-11-20T10:43:02;94012.63;;;23.11;48.00
35676;BME280;21790;42.668;23.298;2022-11-20T10:46:05;94009.47;;;23.22;47.99
35676;BME280;21790;42.668;23.298;2022-11-20T10:48:32;93997.41;;;23.14;47.47
35676;BME280;21790;42.668;23.298;2022-11-20T10:53:58;94027.66;;;23.06;48.41
35676;BME280;21790;42.668;23.298;2022-11-20T10:56:51;94012.97;;;23.08;48.10
35676;BME280;21790;42.668;23.298;2022-11-20T10:59:41;94031.38;;;22.93;49.04
35676;BME280;21790;42.668;23.298;2022-11-20T11:02:23;94050.25;;;22.34;50.37
35676;BME280;21790;42.668;23.298;2022-11-20T11:04:53;94076.34;;;22.35;50.86
35676;BME280;21790;42.668;23.298;2022-11-20T11:07:27;94063.81;;;22.15;51.55
35676;BME280;21790;42.668;23.298;2022-11-20T11:09:56;94098.56;;;21.35;51.27
35676;BME280;21790;42.668;23.298;2022-11-20T11:12:24;94096.13;;;20.18;53.78
35676;BME280;21790;42.668;23.298;2022-11-20T11:14:56;94099.19;;;19.62;54.79
35676;BME280;21790;42.668;23.298;2022-11-20T11:17:32;94087.63;;;19.02;50.79
35676;BME280;21790;42.668;23.298;2022-11-20T11:22:32;94078.31;;;18.56;50.92
35676;BME280;21790;42.668;23.298;2022-11-20T11:24:58;94071.69;;;18.16;52.08
35676;BME280;21790;42.668;23.298;2022-11-20T11:27:24;94038.38;;;17.94;52.45
35676;BME280;21790;42.668;23.298;2022-11-20T11:29:49;94051.00;;;18.01;54.01
35676;BME280;21790;42.668;23.298;2022-11-20T11:32:18;94057.66;;;17.97;53.65
35676;BME280;21790;42.668;23.298;2022-11-20T11:34:44;94054.25;;;17.56;54.49
35676;BME280;21790;42.668;23.298;2022-11-20T11:37:15;94039.38;;;17.72;53.70
35676;BME280;21790;42.668;23.298;2022-11-20T11:39:43;94031.34;;;17.63;52.82
35676;BME280;21790;42.668;23.298;2022-11-20T11:42:13;94027.28;;;17.64;52.72
35676;BME280;21790;42.668;23.298;2022-11-20T11:44:45;94031.13;;;17.61;52.21
35676;BME280;21790;42.668;23.298;2022-11-20T11:47:50;94020.19;;;17.57;53.02
35676;BME280;21790;42.668;23.298;2022-11-20T11:55:38;94038.50;;;17.83;51.14
35676;BME280;21790;42.668;23.298;2022-11-20T11:58:21;94028.34;;;18.04;51.45
35676;BME280;21790;42.668;23.298;2022-11-20T12:00:58;94026.56;;;17.82;50.72
35676;BME280;21790;42.668;23.298;2022-11-20T12:03:40;94026.31;;;18.05;50.15
35676;BME280;21790;42.668;23.298;2022-11-20T12:06:15;94007.22;;;17.84;50.17
35676;BME280;21790;42.668;23.298;2022-11-20T12:09:07;94023.00;;;18.25;51.10
35676;BME280;21790;42.668;23.298;2022-11-20T12:11:46;94026.75;;;17.66;50.95
35676;BME280;21790;42.668;23.298;2022-11-20T12:14:15;94003.66;;;17.35;51.66
35676;BME280;21790;42.668;23.298;2022-11-20T12:16:45;94009.88;;;17.47;51.27
35676;BME280;21790;42.668;23.298;2022-11-20T12:19:13;94000.28;;;17.91;50.86
35676;BME280;21790;42.668;23.298;2022-11-20T12:22:14;94009.19;;;17.89;49.86
35676;BME280;21790;42.668;23.298;2022-11-20T12:43:46;93946.97;;;18.64;49.22
35676;BME280;21790;42.668;23.298;2022-11-20T12:46:46;93929.72;;;19.05;49.23
35676;BME280;21790;42.668;23.298;2022-11-20T12:50:14;93931.38;;;19.13;48.73
35676;BME280;21790;42.668;23.298;2022-11-20T12:52:48;93937.53;;;19.25;48.46
35676;BME280;21790;42.668;23.298;2022-11-20T12:55:30;93947.28;;;19.50;48.01
35676;BME280;21790;42.668;23.298;2022-11-20T13:01:00;93982.09;;;19.94;49.13
35676;BME280;21790;42.668;23.298;2022-11-20T13:03:47;94018.88;;;20.04;48.41
35676;BME280;21790;42.668;23.298;2022-11-20T13:06:19;94002.69;;;19.97;50.22
35676;BME280;21790;42.668;23.298;2022-11-20T13:08:53;93992.78;;;20.09;49.49
35676;BME280;21790;42.668;23.298;2022-11-20T13:14:33;94021.06;;;19.85;50.96
35676;BME280;21790;42.668;23.298;2022-11-20T13:17:14;94026.22;;;20.07;49.90
35676;BME280;21790;42.668;23.298;2022-11-20T13:19:52;93982.34;;;19.96;50.34
35676;BME280;21790;42.668;23.298;2022-11-20T13:22:42;93989.88;;;19.88;49.49
35676;BME280;21790;42.668;23.298;2022-11-20T13:30:53;93991.91;;;19.75;50.65
35676;BME280;21790;42.668;23.298;2022-11-20T13:33:31;94009.88;;;19.53;51.59
35676;BME280;21790;42.668;23.298;2022-11-20T13:36:03;94014.66;;;19.58;51.50
35676;BME280;21790;42.668;23.298;2022-11-20T13:38:42;93986.53;;;19.77;50.94
35676;BME280;21790;42.668;23.298;2022-11-20T13:41:09;94007.94;;;19.48;51.21
35676;BME280;21790;42.668;23.298;2022-11-20T13:44:15;94031.50;;;18.57;53.80
35676;BME280;21790;42.668;23.298;2022-11-20T13:46:47;94007.03;;;18.95;52.98
35676;BME280;21790;42.668;23.298;2022-11-20T13:49:27;94021.00;;;19.45;51.46
35676;BME280;21790;42.668;23.298;2022-11-20T13:52:02;94020.84;;;19.38;52.34
35676;BME280;21790;42.668;23.298;2022-11-20T14:00:15;94035.81;;;19.72;51.13
35676;BME280;21790;42.668;23.298;2022-11-20T14:02:43;94039.13;;;19.71;51.58
35676;BME280;21790;42.668;23.298;2022-11-20T14:05:20;94037.41;;;19.81;51.83
35676;BME280;21790;42.668;23.298;2022-11-20T14:07:47;94042.94;;;19.73;51.47
35676;BME280;21790;42.668;23.298;2022-11-20T14:10:24;94027.41;;;19.85;51.72
35676;BME280;21790;42.668;23.298;2022-11-20T14:12:50;94025.13;;;19.71;52.13
35676;BME280;21790;42.668;23.298;2022-11-20T14:15:30;94028.03;;;19.91;51.49
35676;BME280;21790;42.668;23.298;2022-11-20T14:17:57;94026.22;;;19.68;52.51